Time;durP1;ratioP1;P1;durP2;ratioP2;P2;SDS_P1;SDS_P2;PMS_P1;PMS_P2;Temp;Humidity;BMP_temperature;BMP_pressure;BME280_temperature;BME280_humidity;BME280_pressure;Samples;Min_cycle;Max_cycle;Signal;HPM_P1;HPM_P2
2021/03/07 00:01:32;;;;;;;8.33;5.13;;;;;;;;;;5053345;28;20181;-71
2021/03/07 00:03:57;;;;;;;8.43;5.10;;;;;;;;;;5045764;28;20554;-71
2021/03/07 00:06:22;;;;;;;9.67;6.00;;;;;;;;;;5041284;28;20189;-71
2021/03/07 00:08:47;;;;;;;8.70;5.87;;;;;;;;;;5037705;28;20288;-72
2021/03/07 00:11:12;;;;;;;11.10;6.30;;;;;;;;;;5044025;28;20177;-70
2021/03/07 00:13:38;;;;;;;13.17;6.27;;;;;;;;;;5038604;28;20577;-72
2021/03/07 00:16:03;;;;;;;10.73;5.77;;;;;;;;;;5044542;28;20538;-71
2021/03/07 00:18:28;;;;;;;8.90;5.97;;;;;;;;;;5050697;28;20176;-71
2021/03/07 00:20:53;;;;;;;12.10;6.60;;;;;;;;;;5048741;28;20281;-70
2021/03/07 00:23:18;;;;;;;10.57;5.70;;;;;;;;;;5048524;28;20554;-72
2021/03/07 00:25:43;;;;;;;7.70;6.03;;;;;;;;;;5044764;28;20205;-70
2021/03/07 00:28:09;;;;;;;10.07;6.17;;;;;;;;;;5051837;28;20687;-71
2021/03/07 00:30:34;;;;;;;10.83;6.43;;;;;;;;;;5049458;28;20209;-70
2021/03/07 00:32:59;;;;;;;8.00;5.60;;;;;;;;;;5048383;28;20561;-71
2021/03/07 00:35:24;;;;;;;8.60;5.77;;;;;;;;;;5051955;28;20283;-70
2021/03/07 00:37:50;;;;;;;8.57;5.47;;;;;;;;;;5048225;28;20538;-71
2021/03/07 00:40:15;;;;;;;6.93;5.33;;;;;;;;;;5050548;28;20673;-71
2021/03/07 00:42:44;;;;;;;10.33;5.50;;;;;;;;;;5047620;28;20183;-71
2021/03/07 00:45:10;;;;;;;9.17;5.67;;;;;;;;;;5042424;28;20201;-70
2021/03/07 00:47:35;;;;;;;9.47;5.73;;;;;;;;;;5050016;28;20181;-71
2021/03/07 00:50:00;;;;;;;6.10;5.50;;;;;;;;;;5046847;28;20189;-71
2021/03/07 00:52:25;;;;;;;6.70;5.13;;;;;;;;;;5052007;28;20525;-71
2021/03/07 00:54:50;;;;;;;7.60;5.57;;;;;;;;;;5047793;28;20608;-71
2021/03/07 00:57:16;;;;;;;8.03;5.20;;;;;;;;;;5052206;28;20362;-70
2021/03/07 00:59:41;;;;;;;9.63;6.20;;;;;;;;;;5049776;28;20614;-71
2021/03/07 01:02:06;;;;;;;11.70;6.13;;;;;;;;;;5047805;28;20181;-70
2021/03/07 01:04:31;;;;;;;10.67;5.53;;;;;;;;;;5047129;28;20235;-71
2021/03/07 01:06:56;;;;;;;8.63;6.13;;;;;;;;;;5048992;28;20500;-71
2021/03/07 01:09:21;;;;;;;9.20;5.60;;;;;;;;;;5049682;28;20197;-72
2021/03/07 01:11:47;;;;;;;9.30;5.90;;;;;;;;;;5045034;28;20244;-71
2021/03/07 01:14:12;;;;;;;8.23;5.60;;;;;;;;;;5043413;28;20201;-72
2021/03/07 01:16:38;;;;;;;12.40;5.73;;;;;;;;;;5042791;28;20183;-70
2021/03/07 01:19:03;;;;;;;8.27;5.43;;;;;;;;;;5046104;28;20206;-70
2021/03/07 01:21:28;;;;;;;8.13;5.23;;;;;;;;;;5051391;28;20178;-71
2021/03/07 01:23:53;;;;;;;10.10;6.23;;;;;;;;;;5046859;28;20538;-71
2021/03/07 01:26:19;;;;;;;8.40;4.90;;;;;;;;;;5051653;28;20182;-71
2021/03/07 01:28:44;;;;;;;6.50;5.10;;;;;;;;;;5046507;28;20212;-70
2021/03/07 01:31:09;;;;;;;7.53;5.23;;;;;;;;;;5050116;28;20255;-71
2021/03/07 01:33:34;;;;;;;8.33;5.60;;;;;;;;;;5047150;28;20200;-70
2021/03/07 01:36:02;;;;;;;7.77;6.00;;;;;;;;;;5047730;28;20689;-72
2021/03/07 01:38:28;;;;;;;10.33;6.67;;;;;;;;;;5047072;28;20177;-72
2021/03/07 01:40:53;;;;;;;10.07;6.87;;;;;;;;;;5049955;28;20224;-70
2021/03/07 01:43:20;;;;;;;8.93;6.47;;;;;;;;;;5047289;28;20181;-71
2021/03/07 01:45:45;;;;;;;11.10;7.13;;;;;;;;;;5049052;28;20256;-71
2021/03/07 01:48:11;;;;;;;9.90;6.43;;;;;;;;;;5048587;28;20212;-70
2021/03/07 01:50:38;;;;;;;11.40;7.00;;;;;;;;;;5047772;28;20233;-71
2021/03/07 01:53:04;;;;;;;11.13;6.93;;;;;;;;;;5047125;28;20509;-70
2021/03/07 01:55:34;;;;;;;12.13;7.00;;;;;;;;;;5050239;28;20379;-70
2021/03/07 01:58:02;;;;;;;8.50;6.67;;;;;;;;;;5047743;28;20601;-70
2021/03/07 02:00:28;;;;;;;12.27;6.97;;;;;;;;;;5046600;28;20198;-71
2021/03/07 02:02:53;;;;;;;9.47;5.60;;;;;;;;;;5048580;28;20273;-70
2021/03/07 02:05:19;;;;;;;8.63;5.60;;;;;;;;;;5044396;28;20182;-70
2021/03/07 02:07:44;;;;;;;10.07;6.03;;;;;;;;;;5048501;28;20192;-72
2021/03/07 02:10:11;;;;;;;13.13;6.33;;;;;;;;;;5049589;28;20212;-71
2021/03/07 02:12:40;;;;;;;10.90;6.23;;;;;;;;;;5041184;28;20211;-71
2021/03/07 02:15:08;;;;;;;10.50;6.27;;;;;;;;;;5044431;28;20209;-71
2021/03/07 02:17:33;;;;;;;8.47;6.40;;;;;;;;;;5044457;28;20193;-71
2021/03/07 02:19:59;;;;;;;12.13;6.57;;;;;;;;;;5048906;28;20205;-71
2021/03/07 02:22:44;;;;;;;10.93;6.53;;;;;;;;;;5045619;28;20181;-71
2021/03/07 02:25:11;;;;;;;9.80;5.90;;;;;;;;;;5050950;28;20212;-71
2021/03/07 02:27:36;;;;;;;12.80;6.23;;;;;;;;;;5046992;28;20563;-71
2021/03/07 02:30:06;;;;;;;9.93;7.07;;;;;;;;;;5053325;28;20288;-71
2021/03/07 02:32:33;;;;;;;16.27;7.80;;;;;;;;;;5049311;28;20192;-71
2021/03/07 02:35:02;;;;;;;14.80;7.40;;;;;;;;;;5048472;28;20217;-70
2021/03/07 02:37:27;;;;;;;12.77;7.73;;;;;;;;;;5048352;28;20619;-71
2021/03/07 02:39:53;;;;;;;12.67;7.13;;;;;;;;;;5050794;28;20194;-71
2021/03/07 02:42:20;;;;;;;10.63;7.47;;;;;;;;;;5046760;28;20181;-72
2021/03/07 02:45:05;;;;;;;11.73;8.20;;;;;;;;;;5046295;28;20198;-72
2021/03/07 02:47:31;;;;;;;11.47;7.40;;;;;;;;;;5040202;28;20186;-70
2021/03/07 02:49:58;;;;;;;12.43;8.37;;;;;;;;;;5041827;28;20209;-71
2021/03/07 02:52:23;;;;;;;14.13;8.27;;;;;;;;;;5052773;28;20223;-71
2021/03/07 02:54:50;;;;;;;10.70;7.47;;;;;;;;;;5050969;28;20307;-71
2021/03/07 02:57:17;;;;;;;10.40;7.67;;;;;;;;;;5044992;28;20300;-70
2021/03/07 02:59:42;;;;;;;9.90;8.00;;;;;;;;;;5050448;28;20236;-71
2021/03/07 03:02:08;;;;;;;10.90;8.03;;;;;;;;;;5051799;28;20216;-70
2021/03/07 03:04:34;;;;;;;14.93;9.30;;;;;;;;;;5052995;28;20182;-71
2021/03/07 03:07:00;;;;;;;11.40;7.50;;;;;;;;;;5049929;28;20601;-71
2021/03/07 03:09:27;;;;;;;13.93;8.10;;;;;;;;;;5050054;28;20296;-71
2021/03/07 03:11:53;;;;;;;10.37;7.20;;;;;;;;;;5046826;28;22192;-71
2021/03/07 03:14:18;;;;;;;10.97;7.97;;;;;;;;;;5053055;28;20747;-71
2021/03/07 03:16:48;;;;;;;12.00;7.23;;;;;;;;;;5044270;28;20185;-70
2021/03/07 03:19:14;;;;;;;15.73;7.87;;;;;;;;;;5052759;28;20205;-70
2021/03/07 03:21:39;;;;;;;9.63;7.00;;;;;;;;;;5049561;28;20625;-71
2021/03/07 03:24:06;;;;;;;9.37;7.17;;;;;;;;;;5051874;28;20220;-71
2021/03/07 03:26:32;;;;;;;12.63;7.33;;;;;;;;;;5041885;28;20251;-70
2021/03/07 03:28:58;;;;;;;9.87;7.07;;;;;;;;;;5049021;28;20584;-71
2021/03/07 03:31:24;;;;;;;9.27;7.80;;;;;;;;;;5054664;28;20645;-70
2021/03/07 03:33:49;;;;;;;12.10;7.43;;;;;;;;;;5050173;28;20208;-70
2021/03/07 03:36:14;;;;;;;11.80;8.50;;;;;;;;;;5046051;28;20178;-71
2021/03/07 03:38:47;;;;;;;11.60;7.10;;;;;;;;;;5048201;28;20188;-71
2021/03/07 03:41:13;;;;;;;9.07;7.20;;;;;;;;;;5050896;28;20177;-71
2021/03/07 03:43:39;;;;;;;11.13;7.17;;;;;;;;;;5048995;28;20275;-72
2021/03/07 03:46:05;;;;;;;12.10;7.37;;;;;;;;;;5049816;28;20690;-71
2021/03/07 03:48:34;;;;;;;11.60;8.03;;;;;;;;;;5049463;28;20191;-70
2021/03/07 03:51:00;;;;;;;12.00;8.37;;;;;;;;;;5052305;28;20224;-71
2021/03/07 03:53:26;;;;;;;12.03;8.43;;;;;;;;;;5051129;28;20193;-71
2021/03/07 03:55:53;;;;;;;9.60;8.10;;;;;;;;;;5046710;28;21113;-71
2021/03/07 03:58:21;;;;;;;11.73;8.63;;;;;;;;;;5050196;28;20185;-70
2021/03/07 04:00:47;;;;;;;11.80;8.60;;;;;;;;;;5041879;28;20228;-70
2021/03/07 04:03:13;;;;;;;12.93;8.07;;;;;;;;;;5053201;28;20209;-71
2021/03/07 04:05:39;;;;;;;11.43;8.63;;;;;;;;;;5048849;28;20206;-71
2021/03/07 04:08:04;;;;;;;9.87;7.37;;;;;;;;;;5049731;28;20178;-70
2021/03/07 04:10:29;;;;;;;12.43;8.83;;;;;;;;;;5039621;28;20209;-71
2021/03/07 04:12:58;;;;;;;10.97;8.77;;;;;;;;;;5050646;28;20181;-71
2021/03/07 04:15:24;;;;;;;12.20;9.40;;;;;;;;;;5042966;28;20312;-70
2021/03/07 04:17:50;;;;;;;12.53;9.37;;;;;;;;;;5048933;28;20264;-71
2021/03/07 04:20:15;;;;;;;12.33;8.67;;;;;;;;;;5051051;28;20339;-70
2021/03/07 04:22:41;;;;;;;15.33;8.43;;;;;;;;;;5052271;28;20182;-70
2021/03/07 04:25:07;;;;;;;19.20;11.70;;;;;;;;;;5050643;28;20646;-70
2021/03/07 04:27:32;;;;;;;18.70;12.07;;;;;;;;;;5038348;28;20273;-72
2021/03/07 04:29:58;;;;;;;16.80;11.30;;;;;;;;;;5052649;28;20271;-70
2021/03/07 04:32:23;;;;;;;12.17;10.90;;;;;;;;;;5050826;28;20197;-70
2021/03/07 04:34:49;;;;;;;13.20;11.23;;;;;;;;;;5050900;28;20229;-70
2021/03/07 04:37:14;;;;;;;14.83;12.47;;;;;;;;;;5048895;28;20662;-69
2021/03/07 04:39:39;;;;;;;15.00;11.33;;;;;;;;;;5047910;28;20205;-70
2021/03/07 04:42:05;;;;;;;16.30;12.07;;;;;;;;;;5052002;28;20557;-71
2021/03/07 04:44:31;;;;;;;15.57;11.97;;;;;;;;;;5047588;28;20509;-71
2021/03/07 04:46:56;;;;;;;18.03;11.57;;;;;;;;;;5048344;28;20177;-71
2021/03/07 04:49:21;;;;;;;15.10;11.37;;;;;;;;;;5049268;28;20562;-70
2021/03/07 04:51:46;;;;;;;15.90;10.93;;;;;;;;;;5048851;28;20231;-71
2021/03/07 04:54:12;;;;;;;16.67;12.70;;;;;;;;;;5048724;28;20254;-71
2021/03/07 04:56:37;;;;;;;12.47;11.03;;;;;;;;;;5041910;28;20181;-70
2021/03/07 04:59:02;;;;;;;16.13;13.43;;;;;;;;;;5051877;28;20228;-72
2021/03/07 05:01:27;;;;;;;16.83;12.60;;;;;;;;;;5041062;28;20189;-70
2021/03/07 05:03:52;;;;;;;15.30;12.43;;;;;;;;;;5051010;28;20177;-71
2021/03/07 05:06:18;;;;;;;16.30;12.77;;;;;;;;;;5048824;28;20177;-70
2021/03/07 05:08:43;;;;;;;16.10;12.53;;;;;;;;;;5049857;28;20698;-70
2021/03/07 05:11:08;;;;;;;15.73;12.53;;;;;;;;;;5039752;28;20655;-70
2021/03/07 05:13:34;;;;;;;17.30;12.90;;;;;;;;;;5050608;28;20323;-70
2021/03/07 05:15:59;;;;;;;14.67;12.00;;;;;;;;;;5043528;28;20170;-70
2021/03/07 05:18:24;;;;;;;15.40;12.23;;;;;;;;;;5045837;28;20173;-70
2021/03/07 05:20:49;;;;;;;14.63;12.47;;;;;;;;;;5043964;28;20175;-70
2021/03/07 05:23:14;;;;;;;15.73;11.73;;;;;;;;;;5042428;28;20181;-71
2021/03/07 05:25:40;;;;;;;14.30;12.80;;;;;;;;;;5049591;28;20186;-70
2021/03/07 05:28:05;;;;;;;17.33;13.63;;;;;;;;;;5046615;28;20186;-71
2021/03/07 05:30:30;;;;;;;14.70;12.50;;;;;;;;;;5045196;28;20210;-70
2021/03/07 05:32:56;;;;;;;15.37;13.60;;;;;;;;;;5049862;28;20639;-70
2021/03/07 05:35:21;;;;;;;15.40;13.40;;;;;;;;;;5044313;28;20211;-71
2021/03/07 05:37:46;;;;;;;16.33;12.90;;;;;;;;;;5044650;28;20175;-70
2021/03/07 05:40:12;;;;;;;17.57;13.03;;;;;;;;;;5043961;28;20229;-71
2021/03/07 05:42:37;;;;;;;15.60;12.87;;;;;;;;;;5049319;28;20182;-71
2021/03/07 05:45:03;;;;;;;15.93;13.40;;;;;;;;;;5049100;28;20662;-70
2021/03/07 05:47:28;;;;;;;17.47;13.97;;;;;;;;;;5048248;28;20186;-70
2021/03/07 05:49:54;;;;;;;17.67;14.00;;;;;;;;;;5047048;28;20236;-71
2021/03/07 05:52:22;;;;;;;16.57;13.87;;;;;;;;;;5042379;28;20217;-70
2021/03/07 05:54:48;;;;;;;15.40;13.33;;;;;;;;;;5050876;28;20566;-70
2021/03/07 05:57:15;;;;;;;15.17;13.57;;;;;;;;;;5042418;28;20269;-70
2021/03/07 05:59:40;;;;;;;15.97;14.07;;;;;;;;;;5051182;28;20205;-70
2021/03/07 06:02:06;;;;;;;15.37;13.63;;;;;;;;;;5039909;28;20185;-70
2021/03/07 06:04:31;;;;;;;15.27;13.43;;;;;;;;;;5049501;28;20757;-71
2021/03/07 06:06:56;;;;;;;15.83;14.13;;;;;;;;;;5047374;28;20205;-71
2021/03/07 06:09:28;;;;;;;15.87;13.23;;;;;;;;;;5051524;28;20292;-70
2021/03/07 06:11:54;;;;;;;14.40;12.90;;;;;;;;;;5041118;28;20197;-71
2021/03/07 06:14:29;;;;;;;18.63;13.67;;;;;;;;;;5053886;28;20667;-71
2021/03/07 06:17:01;;;;;;;16.17;13.50;;;;;;;;;;5060359;28;20203;-71
2021/03/07 06:19:26;;;;;;;16.40;13.70;;;;;;;;;;5061121;28;20194;-71
2021/03/07 06:21:52;;;;;;;18.70;13.33;;;;;;;;;;5057902;28;20193;-70
2021/03/07 06:24:36;;;;;;;15.20;12.63;;;;;;;;;;5054802;28;20208;-70
2021/03/07 06:27:03;;;;;;;15.70;13.27;;;;;;;;;;5039594;28;20174;-70
2021/03/07 06:29:28;;;;;;;17.53;14.53;;;;;;;;;;5048491;28;20213;-70
2021/03/07 06:31:53;;;;;;;17.87;13.73;;;;;;;;;;5045348;28;20246;-70
2021/03/07 06:34:18;;;;;;;16.83;14.53;;;;;;;;;;5045335;28;20198;-70
2021/03/07 06:36:43;;;;;;;15.90;14.20;;;;;;;;;;5045598;28;20654;-70
2021/03/07 06:39:10;;;;;;;14.40;12.90;;;;;;;;;;5040795;28;20248;-70
2021/03/07 06:41:35;;;;;;;15.23;13.13;;;;;;;;;;5048096;28;20208;-73
2021/03/07 06:44:10;;;;;;;18.77;14.33;;;;;;;;;;5044075;28;20683;-71
2021/03/07 06:46:37;;;;;;;17.67;14.60;;;;;;;;;;5048876;28;20338;-72
2021/03/07 06:49:03;;;;;;;16.57;14.40;;;;;;;;;;5047659;28;20549;-73
2021/03/07 06:51:32;;;;;;;16.83;14.73;;;;;;;;;;5044431;28;20252;-72
2021/03/07 06:53:59;;;;;;;17.30;15.60;;;;;;;;;;5042295;28;20276;-72
2021/03/07 06:56:43;;;;;;;17.00;15.30;;;;;;;;;;5045694;28;20628;-72
2021/03/07 06:59:09;;;;;;;20.00;15.70;;;;;;;;;;5039656;28;20273;-71
2021/03/07 07:01:38;;;;;;;18.00;16.10;;;;;;;;;;5045642;28;20189;-71
2021/03/07 07:04:03;;;;;;;17.73;15.90;;;;;;;;;;5047537;28;20177;-71
2021/03/07 07:06:28;;;;;;;17.50;15.57;;;;;;;;;;5040821;28;20611;-71
2021/03/07 07:08:53;;;;;;;17.57;15.77;;;;;;;;;;5045170;28;20189;-72
2021/03/07 07:11:19;;;;;;;15.73;14.13;;;;;;;;;;5046354;28;20262;-72
2021/03/07 07:13:48;;;;;;;18.20;15.30;;;;;;;;;;5055735;28;20197;-72
2021/03/07 07:16:14;;;;;;;16.50;14.87;;;;;;;;;;5049706;28;20264;-69
2021/03/07 07:18:42;;;;;;;17.33;15.43;;;;;;;;;;5047587;28;20170;-69
2021/03/07 07:21:09;;;;;;;17.23;15.43;;;;;;;;;;5045885;28;20174;-69
2021/03/07 07:23:34;;;;;;;21.43;15.70;;;;;;;;;;5051412;28;20188;-71
2021/03/07 07:26:00;;;;;;;17.20;15.13;;;;;;;;;;5052973;28;20253;-72
2021/03/07 07:28:25;;;;;;;17.57;15.60;;;;;;;;;;5049398;28;20193;-71
2021/03/07 07:30:52;;;;;;;17.17;15.27;;;;;;;;;;5051187;28;20181;-71
2021/03/07 07:33:25;;;;;;;16.43;13.73;;;;;;;;;;5050475;28;20177;-70
2021/03/07 07:35:52;;;;;;;14.43;13.03;;;;;;;;;;5048521;28;20445;-69
2021/03/07 07:38:18;;;;;;;18.47;13.63;;;;;;;;;;5048962;28;20239;-70
2021/03/07 07:40:43;;;;;;;15.03;13.47;;;;;;;;;;5048866;28;20193;-70
2021/03/07 07:43:09;;;;;;;14.77;13.27;;;;;;;;;;5051634;28;20173;-69
2021/03/07 07:45:34;;;;;;;19.03;13.73;;;;;;;;;;5050695;28;20619;-70
2021/03/07 07:48:00;;;;;;;17.10;12.73;;;;;;;;;;5047397;28;20625;-70
2021/03/07 07:50:31;;;;;;;14.40;12.90;;;;;;;;;;5048459;28;20718;-70
2021/03/07 07:53:04;;;;;;;14.47;12.87;;;;;;;;;;5051204;28;20209;-70
2021/03/07 07:55:48;;;;;;;13.47;11.77;;;;;;;;;;5051780;28;20208;-70
2021/03/07 07:58:32;;;;;;;14.33;12.83;;;;;;;;;;5049339;28;20662;-71
2021/03/07 08:00:57;;;;;;;14.90;12.97;;;;;;;;;;5045736;28;20173;-71
2021/03/07 08:03:29;;;;;;;15.93;12.33;;;;;;;;;;5045798;28;20240;-71
2021/03/07 08:05:54;;;;;;;13.47;11.53;;;;;;;;;;5049552;28;20550;-70
2021/03/07 08:08:29;;;;;;;11.97;10.77;;;;;;;;;;5043328;28;20415;-73
2021/03/07 08:10:54;;;;;;;12.00;10.80;;;;;;;;;;5039123;28;20548;-71
2021/03/07 08:13:28;;;;;;;16.23;12.50;;;;;;;;;;5037695;28;20259;-70
2021/03/07 08:16:00;;;;;;;12.40;11.00;;;;;;;;;;5039106;28;20246;-71
2021/03/07 08:18:44;;;;;;;13.63;11.10;;;;;;;;;;5034527;28;20647;-71
2021/03/07 08:21:10;;;;;;;12.17;10.87;;;;;;;;;;5038589;28;20189;-71
2021/03/07 08:23:54;;;;;;;13.73;11.07;;;;;;;;;;5028939;28;20178;-71
2021/03/07 08:26:19;;;;;;;10.63;9.53;;;;;;;;;;5041984;28;20655;-70
2021/03/07 08:28:45;;;;;;;11.27;9.50;;;;;;;;;;5044156;28;20197;-72
2021/03/07 08:31:16;;;;;;;12.07;9.30;;;;;;;;;;5039510;28;20197;-72
2021/03/07 08:33:41;;;;;;;11.33;9.43;;;;;;;;;;5037060;28;20615;-70
2021/03/07 08:36:16;;;;;;;11.83;10.00;;;;;;;;;;5045841;28;20182;-71
2021/03/07 08:38:51;;;;;;;11.13;9.73;;;;;;;;;;5039184;28;20553;-71
2021/03/07 08:41:17;;;;;;;9.97;8.67;;;;;;;;;;5036667;28;20670;-70
2021/03/07 08:43:43;;;;;;;11.07;9.43;;;;;;;;;;5035867;28;20663;-71
2021/03/07 08:46:12;;;;;;;10.33;9.27;;;;;;;;;;5037238;28;20185;-71
2021/03/07 08:48:39;;;;;;;10.10;9.10;;;;;;;;;;5043006;28;20182;-72
2021/03/07 08:51:05;;;;;;;10.43;8.67;;;;;;;;;;5046762;28;20189;-70
2021/03/07 08:53:38;;;;;;;9.43;8.03;;;;;;;;;;5037910;28;20612;-69
2021/03/07 08:56:03;;;;;;;13.73;8.83;;;;;;;;;;5044930;28;20182;-69
2021/03/07 08:58:28;;;;;;;10.93;8.37;;;;;;;;;;5034996;28;20178;-71
2021/03/07 09:00:54;;;;;;;10.47;8.93;;;;;;;;;;5038097;28;20178;-69
2021/03/07 09:03:21;;;;;;;9.97;8.90;;;;;;;;;;5039449;28;20227;-69
2021/03/07 09:05:47;;;;;;;10.23;8.47;;;;;;;;;;5037636;28;20187;-69
2021/03/07 09:08:12;;;;;;;8.97;8.07;;;;;;;;;;5038417;28;20216;-69
2021/03/07 09:10:39;;;;;;;11.10;7.97;;;;;;;;;;5040340;28;20219;-69
2021/03/07 09:13:15;;;;;;;9.77;7.93;;;;;;;;;;5044204;28;20645;-70
2021/03/07 09:15:50;;;;;;;9.20;8.10;;;;;;;;;;5038891;28;20486;-70
2021/03/07 09:18:16;;;;;;;8.83;7.17;;;;;;;;;;5038658;28;20180;-69
2021/03/07 09:20:53;;;;;;;9.60;7.60;;;;;;;;;;5038385;28;20202;-70
2021/03/07 09:23:24;;;;;;;9.87;7.87;;;;;;;;;;5037642;28;20169;-69
2021/03/07 09:25:49;;;;;;;8.23;7.17;;;;;;;;;;5034775;28;20178;-71
2021/03/07 09:28:27;;;;;;;8.67;7.13;;;;;;;;;;5038762;28;20177;-70
2021/03/07 09:30:56;;;;;;;13.97;8.77;;;;;;;;;;5039460;28;20181;-70
2021/03/07 09:33:21;;;;;;;9.27;6.67;;;;;;;;;;5043300;28;20268;-72
2021/03/07 09:35:47;;;;;;;7.50;6.50;;;;;;;;;;5045990;28;20205;-71
2021/03/07 09:38:14;;;;;;;6.90;6.20;;;;;;;;;;5037928;28;20559;-71
2021/03/07 09:40:41;;;;;;;6.57;5.90;;;;;;;;;;5037887;28;20690;-71
2021/03/07 09:43:07;;;;;;;7.97;6.53;;;;;;;;;;5037592;28;20177;-71
2021/03/07 09:45:33;;;;;;;6.87;6.00;;;;;;;;;;5037643;28;20185;-70
2021/03/07 09:47:58;;;;;;;6.70;5.90;;;;;;;;;;5041111;28;20194;-71
2021/03/07 09:50:24;;;;;;;7.43;5.90;;;;;;;;;;5039641;28;20216;-71
2021/03/07 09:52:50;;;;;;;7.70;6.13;;;;;;;;;;5047561;28;20201;-71
2021/03/07 09:55:26;;;;;;;7.07;6.03;;;;;;;;;;5048528;28;20205;-70
2021/03/07 09:58:01;;;;;;;6.90;5.87;;;;;;;;;;5051260;28;20263;-70
2021/03/07 10:00:28;;;;;;;6.40;5.07;;;;;;;;;;5043510;28;20251;-69
2021/03/07 10:02:53;;;;;;;6.40;5.80;;;;;;;;;;5048986;28;20178;-70
2021/03/07 10:05:18;;;;;;;6.73;6.03;;;;;;;;;;5048164;28;20681;-69
2021/03/07 10:07:43;;;;;;;6.57;5.80;;;;;;;;;;5049763;28;20563;-70
2021/03/07 10:10:11;;;;;;;6.97;5.60;;;;;;;;;;5049950;28;20276;-70
2021/03/07 10:12:42;;;;;;;6.87;5.90;;;;;;;;;;5048929;28;20192;-69
2021/03/07 10:15:08;;;;;;;7.00;5.93;;;;;;;;;;5044825;28;20291;-69
2021/03/07 10:17:42;;;;;;;6.30;5.70;;;;;;;;;;5048226;28;20658;-69
2021/03/07 10:20:10;;;;;;;7.07;5.57;;;;;;;;;;5048922;28;20196;-69
2021/03/07 10:22:36;;;;;;;8.30;6.27;;;;;;;;;;5050920;28;20193;-72
2021/03/07 10:25:01;;;;;;;8.53;6.33;;;;;;;;;;5045846;28;20265;-71
2021/03/07 10:27:30;;;;;;;7.53;6.70;;;;;;;;;;5051711;28;20260;-69
2021/03/07 10:29:55;;;;;;;8.33;5.93;;;;;;;;;;5047118;28;20686;-69
2021/03/07 10:32:20;;;;;;;6.47;5.47;;;;;;;;;;5049251;28;20190;-69
2021/03/07 10:34:50;;;;;;;15.67;6.83;;;;;;;;;;5041050;28;20289;-69
2021/03/07 10:37:36;;;;;;;8.00;5.73;;;;;;;;;;5048236;28;20178;-70
2021/03/07 10:40:04;;;;;;;6.47;5.40;;;;;;;;;;5040544;28;20751;-69
2021/03/07 10:42:30;;;;;;;7.87;5.43;;;;;;;;;;5050692;28;20178;-69
2021/03/07 10:45:10;;;;;;;8.13;4.90;;;;;;;;;;5046297;28;20182;-72
2021/03/07 10:47:35;;;;;;;5.57;4.97;;;;;;;;;;5051344;28;20666;-69
2021/03/07 10:50:00;;;;;;;3.97;3.23;;;;;;;;;;5055270;28;20199;-69
2021/03/07 10:52:25;;;;;;;4.97;3.67;;;;;;;;;;5043347;28;20688;-70
2021/03/07 10:54:50;;;;;;;5.27;3.57;;;;;;;;;;5040014;28;20206;-71
2021/03/07 10:57:15;;;;;;;4.67;3.63;;;;;;;;;;5043098;28;20556;-72
2021/03/07 10:59:41;;;;;;;6.47;3.90;;;;;;;;;;5041070;28;20200;-73
2021/03/07 11:02:08;;;;;;;3.77;2.93;;;;;;;;;;5041554;28;20181;-71
2021/03/07 11:04:33;;;;;;;4.47;3.40;;;;;;;;;;5040372;28;20182;-70
2021/03/07 11:06:58;;;;;;;4.63;4.20;;;;;;;;;;5042395;28;20189;-70
2021/03/07 11:09:24;;;;;;;4.70;3.70;;;;;;;;;;5052922;28;20202;-70
2021/03/07 11:11:49;;;;;;;5.17;3.23;;;;;;;;;;5050562;28;20730;-70
2021/03/07 11:14:14;;;;;;;3.97;3.13;;;;;;;;;;5051271;28;20243;-69
2021/03/07 11:16:39;;;;;;;5.17;3.37;;;;;;;;;;5046821;28;20204;-71
2021/03/07 11:19:04;;;;;;;4.83;3.70;;;;;;;;;;5054165;28;20686;-70
2021/03/07 11:21:30;;;;;;;3.97;3.30;;;;;;;;;;5044313;28;20181;-69
2021/03/07 11:23:55;;;;;;;4.23;3.83;;;;;;;;;;5051058;28;20182;-70
2021/03/07 11:26:20;;;;;;;3.17;2.73;;;;;;;;;;5046397;28;20262;-70
2021/03/07 11:28:45;;;;;;;2.20;2.00;;;;;;;;;;5043295;28;20221;-70
2021/03/07 11:31:10;;;;;;;2.97;2.50;;;;;;;;;;5049329;28;20185;-70
2021/03/07 11:33:35;;;;;;;3.83;2.23;;;;;;;;;;5052064;28;20260;-70
2021/03/07 11:36:01;;;;;;;2.37;1.93;;;;;;;;;;5054041;28;20201;-70
2021/03/07 11:38:26;;;;;;;3.30;2.30;;;;;;;;;;5049583;28;20251;-70
2021/03/07 11:40:51;;;;;;;2.93;2.37;;;;;;;;;;5053827;28;20200;-71
2021/03/07 11:43:16;;;;;;;3.50;2.33;;;;;;;;;;5047365;28;20196;-70
2021/03/07 11:45:41;;;;;;;3.43;2.57;;;;;;;;;;5053260;28;20174;-69
2021/03/07 11:48:07;;;;;;;4.00;2.10;;;;;;;;;;5049851;28;20189;-70
2021/03/07 11:50:33;;;;;;;2.23;2.00;;;;;;;;;;5050859;28;20690;-71
2021/03/07 11:52:58;;;;;;;2.77;2.50;;;;;;;;;;5043106;28;20184;-70
2021/03/07 11:55:23;;;;;;;2.60;1.90;;;;;;;;;;5047972;28;20211;-72
2021/03/07 11:57:48;;;;;;;3.63;2.00;;;;;;;;;;5044239;28;20189;-70
2021/03/07 12:00:14;;;;;;;3.47;1.57;;;;;;;;;;5041635;28;20594;-70
2021/03/07 12:02:39;;;;;;;4.57;2.30;;;;;;;;;;5053777;28;20185;-70
2021/03/07 12:05:05;;;;;;;4.20;2.80;;;;;;;;;;5048953;28;20593;-70
2021/03/07 12:07:30;;;;;;;3.70;2.40;;;;;;;;;;5042728;28;20178;-70
2021/03/07 12:09:55;;;;;;;3.80;2.53;;;;;;;;;;5050924;28;20212;-70
2021/03/07 12:12:20;;;;;;;3.43;2.40;;;;;;;;;;5048531;28;20186;-70
2021/03/07 12:14:46;;;;;;;3.27;2.57;;;;;;;;;;5045004;28;20229;-70
2021/03/07 12:17:11;;;;;;;4.03;3.10;;;;;;;;;;5042378;28;20273;-69
2021/03/07 12:19:36;;;;;;;2.80;2.60;;;;;;;;;;5046758;28;20195;-69
2021/03/07 12:22:01;;;;;;;3.70;2.80;;;;;;;;;;5050406;28;20182;-70
2021/03/07 12:24:29;;;;;;;5.97;3.37;;;;;;;;;;5046270;28;20685;-70
2021/03/07 12:26:54;;;;;;;5.27;3.10;;;;;;;;;;5055316;28;20596;-70
2021/03/07 12:29:19;;;;;;;4.87;3.00;;;;;;;;;;5049917;28;20284;-71
2021/03/07 12:31:44;;;;;;;4.07;2.97;;;;;;;;;;5042757;28;20198;-69
2021/03/07 12:34:10;;;;;;;4.87;3.17;;;;;;;;;;5040036;28;20210;-70
2021/03/07 12:36:35;;;;;;;3.80;2.90;;;;;;;;;;5049944;28;20182;-70
2021/03/07 12:39:00;;;;;;;4.13;2.90;;;;;;;;;;5048863;28;20316;-71
2021/03/07 12:41:25;;;;;;;5.63;2.80;;;;;;;;;;5041802;28;20678;-70
2021/03/07 12:43:50;;;;;;;4.47;2.57;;;;;;;;;;5049675;28;20173;-70
2021/03/07 12:46:16;;;;;;;4.53;2.93;;;;;;;;;;5044760;28;20178;-70
2021/03/07 12:48:41;;;;;;;6.70;3.57;;;;;;;;;;5041472;28;20206;-71
2021/03/07 12:51:06;;;;;;;4.97;3.13;;;;;;;;;;5050025;28;20639;-70
2021/03/07 12:53:32;;;;;;;4.83;2.90;;;;;;;;;;5050298;28;20170;-71
2021/03/07 12:55:57;;;;;;;4.13;3.67;;;;;;;;;;5045628;28;20201;-72
2021/03/07 12:58:22;;;;;;;5.03;3.37;;;;;;;;;;5049299;28;20470;-70
2021/03/07 13:00:47;;;;;;;4.40;3.10;;;;;;;;;;5044245;28;20198;-71
2021/03/07 13:03:13;;;;;;;4.43;3.27;;;;;;;;;;5046382;28;20255;-69
2021/03/07 13:05:38;;;;;;;6.30;4.43;;;;;;;;;;5048458;28;20662;-71
2021/03/07 13:08:03;;;;;;;6.70;3.97;;;;;;;;;;5041980;28;21655;-72
2021/03/07 13:10:28;;;;;;;7.20;4.27;;;;;;;;;;5036883;28;20247;-70
2021/03/07 13:12:54;;;;;;;5.57;4.30;;;;;;;;;;5043329;28;20651;-70
2021/03/07 13:15:19;;;;;;;6.47;4.70;;;;;;;;;;5045816;28;20205;-72
2021/03/07 13:17:44;;;;;;;8.57;5.10;;;;;;;;;;5045264;28;20185;-70
2021/03/07 13:20:10;;;;;;;7.57;4.80;;;;;;;;;;5045519;28;20309;-70
2021/03/07 13:22:36;;;;;;;7.60;5.23;;;;;;;;;;5049771;28;20177;-70
2021/03/07 13:25:01;;;;;;;9.60;5.53;;;;;;;;;;5047091;28;20208;-70
2021/03/07 13:27:26;;;;;;;9.63;5.63;;;;;;;;;;5041390;28;20528;-70
2021/03/07 13:29:51;;;;;;;8.23;7.13;;;;;;;;;;5048682;28;20582;-70
2021/03/07 13:32:17;;;;;;;8.93;6.40;;;;;;;;;;5034765;28;20222;-70
2021/03/07 13:34:42;;;;;;;9.77;6.77;;;;;;;;;;5045439;28;20220;-70
2021/03/07 13:37:07;;;;;;;9.93;6.80;;;;;;;;;;5051226;28;20205;-71
2021/03/07 13:39:33;;;;;;;11.47;6.70;;;;;;;;;;5043896;28;20729;-70
2021/03/07 13:42:01;;;;;;;8.53;6.50;;;;;;;;;;5047363;28;20186;-72
2021/03/07 13:44:26;;;;;;;7.50;6.27;;;;;;;;;;5047397;28;20185;-71
2021/03/07 13:46:52;;;;;;;7.43;6.50;;;;;;;;;;5042985;28;20196;-70
2021/03/07 13:49:17;;;;;;;7.23;6.07;;;;;;;;;;5042947;28;20290;-71
2021/03/07 13:51:43;;;;;;;7.70;6.30;;;;;;;;;;5043586;28;20183;-72
2021/03/07 13:54:09;;;;;;;7.03;6.03;;;;;;;;;;5044076;28;20208;-70
2021/03/07 13:56:34;;;;;;;7.87;5.40;;;;;;;;;;5041023;28;20189;-71
2021/03/07 13:58:59;;;;;;;8.80;5.57;;;;;;;;;;5042514;28;20270;-69
2021/03/07 14:01:24;;;;;;;8.63;6.00;;;;;;;;;;5039406;28;20201;-70
2021/03/07 14:03:50;;;;;;;7.33;6.40;;;;;;;;;;5036815;28;20180;-70
2021/03/07 14:06:15;;;;;;;7.30;5.63;;;;;;;;;;5049113;28;20178;-70
2021/03/07 14:08:40;;;;;;;6.27;5.17;;;;;;;;;;5046885;28;20186;-71
2021/03/07 14:11:05;;;;;;;8.80;5.27;;;;;;;;;;5048032;28;20693;-71
2021/03/07 14:13:31;;;;;;;6.30;5.17;;;;;;;;;;5050450;28;20173;-71
2021/03/07 14:15:56;;;;;;;9.73;5.60;;;;;;;;;;5046879;28;20201;-70
2021/03/07 14:18:21;;;;;;;6.27;5.40;;;;;;;;;;5045238;28;20561;-70
2021/03/07 14:20:46;;;;;;;7.37;5.07;;;;;;;;;;5052929;28;20197;-70
2021/03/07 14:23:12;;;;;;;6.87;5.47;;;;;;;;;;5049539;28;20204;-70
2021/03/07 14:25:37;;;;;;;7.27;5.30;;;;;;;;;;5038758;28;20182;-70
2021/03/07 14:28:04;;;;;;;8.30;5.50;;;;;;;;;;5038140;28;20183;-69
2021/03/07 14:30:29;;;;;;;8.73;6.47;;;;;;;;;;5045455;28;20209;-70